Time;durP1;ratioP1;P1;durP2;ratioP2;P2;SDS_P1;SDS_P2;PMS_P1;PMS_P2;Temp;Humidity;BMP_temperature;BMP_pressure;BME280_temperature;BME280_humidity;BME280_pressure;Samples;Min_cycle;Max_cycle;Signal;HPM_P1;HPM_P2
2021/12/03 00:00:10;;;;;;;8.53;5.50;;;;;;;-0.96;82.63;100100.63;5031558;28;20239;-83
2021/12/03 00:02:36;;;;;;;7.90;5.57;;;;;;;-0.97;83.22;100094.53;5025245;28;20212;-81
2021/12/03 00:05:05;;;;;;;7.63;5.43;;;;;;;-0.95;83.03;100094.50;5026077;28;20231;-81
2021/12/03 00:07:33;;;;;;;9.70;6.53;;;;;;;-0.97;83.31;100099.75;5026135;28;20653;-81
2021/12/03 00:09:59;;;;;;;9.70;6.50;;;;;;;-0.99;83.32;100098.94;5029222;28;20249;-80
2021/12/03 00:12:26;;;;;;;11.33;6.57;;;;;;;-0.99;83.61;100096.31;5008397;28;20291;-81
2021/12/03 00:14:52;;;;;;;10.53;6.33;;;;;;;-0.98;83.35;100094.56;5006491;28;20591;-81
2021/12/03 00:17:19;;;;;;;9.43;6.80;;;;;;;-1.02;83.89;100088.53;5014617;28;20210;-82
2021/12/03 00:19:45;;;;;;;9.17;6.80;;;;;;;-1.03;83.88;100093.81;5007946;28;20210;-82
2021/12/03 00:22:13;;;;;;;12.73;6.77;;;;;;;-1.07;83.39;100086.03;5003709;28;20206;-82
2021/12/03 00:24:40;;;;;;;10.00;6.90;;;;;;;-1.07;84.28;100085.19;5016542;28;20209;-83
2021/12/03 00:27:07;;;;;;;10.10;5.00;;;;;;;-1.05;83.89;100073.78;5023723;28;20223;-81
2021/12/03 00:29:34;;;;;;;11.70;7.07;;;;;;;-1.05;84.11;100070.31;5006749;28;20589;-82
2021/12/03 00:32:01;;;;;;;10.43;6.80;;;;;;;-1.08;83.92;100065.19;5007906;28;20203;-81
2021/12/03 00:34:27;;;;;;;10.47;6.63;;;;;;;-1.12;84.34;100067.03;5028410;28;20715;-82
2021/12/03 00:36:54;;;;;;;11.50;7.37;;;;;;;-1.14;84.62;100067.97;5017320;28;20250;-81
2021/12/03 00:39:23;;;;;;;12.83;7.37;;;;;;;-1.13;84.38;100077.53;5015293;28;20207;-82
2021/12/03 00:41:55;;;;;;;11.27;7.67;;;;;;;-1.14;84.70;100089.72;5012436;28;20677;-81
2021/12/03 00:44:24;;;;;;;13.37;7.47;;;;;;;-1.14;84.75;100075.81;5033984;28;20571;-82
2021/12/03 00:46:50;;;;;;;13.23;7.60;;;;;;;-1.13;84.23;100067.06;5016626;28;20234;-82
2021/12/03 00:49:17;;;;;;;13.87;7.10;;;;;;;-1.15;85.02;100056.66;5033975;28;20214;-83
2021/12/03 00:51:44;;;;;;;11.37;7.17;;;;;;;-1.14;84.87;100062.72;5023132;28;20214;-85
2021/12/03 00:54:12;;;;;;;9.23;5.80;;;;;;;-1.14;85.08;100065.34;5013976;28;20329;-83
2021/12/03 00:56:41;;;;;;;14.80;8.27;;;;;;;-1.14;85.25;100076.66;5031606;28;20661;-82
2021/12/03 00:59:07;;;;;;;14.60;7.83;;;;;;;-1.13;84.97;100054.00;5020455;28;20202;-83
2021/12/03 01:01:34;;;;;;;10.23;6.83;;;;;;;-1.14;85.40;100070.56;5021497;28;20217;-84
2021/12/03 01:04:02;;;;;;;14.47;7.07;;;;;;;-1.14;85.55;100081.03;5032702;28;20206;-84
2021/12/03 01:06:28;;;;;;;12.20;8.00;;;;;;;-1.16;85.47;100070.59;5035388;28;20589;-83
2021/12/03 01:08:55;;;;;;;13.33;8.40;;;;;;;-1.13;85.72;100069.69;5020165;28;20215;-83
2021/12/03 01:11:21;;;;;;;14.10;6.93;;;;;;;-1.15;86.08;100072.31;5033042;28;20214;-81
2021/12/03 01:13:50;;;;;;;14.57;7.70;;;;;;;-1.12;85.80;100066.16;5017123;28;20203;-81
2021/12/03 01:16:17;;;;;;;16.83;8.00;;;;;;;-1.12;85.85;100074.00;5025271;28;20235;-82
2021/12/03 01:18:46;;;;;;;13.80;6.67;;;;;;;-1.12;86.18;100061.81;5031288;28;20298;-81
2021/12/03 01:21:14;;;;;;;10.37;6.50;;;;;;;-1.09;86.04;100058.25;5014425;28;20257;-82
2021/12/03 01:23:41;;;;;;;13.53;7.67;;;;;;;-1.08;86.10;100062.59;5015985;28;20279;-81
2021/12/03 01:26:07;;;;;;;11.07;6.20;;;;;;;-1.08;86.49;100046.91;5026187;28;20234;-81
2021/12/03 01:28:34;;;;;;;12.77;7.33;;;;;;;-1.09;86.08;100053.91;5023348;28;20210;-81
2021/12/03 01:31:02;;;;;;;15.23;7.37;;;;;;;-1.06;86.25;100063.38;5023469;28;20608;-82
2021/12/03 01:33:29;;;;;;;10.27;6.03;;;;;;;-1.04;86.34;100074.66;5025357;28;20221;-83
2021/12/03 01:35:56;;;;;;;15.07;8.13;;;;;;;-1.02;85.92;100070.25;5018942;28;20244;-82
2021/12/03 01:38:23;;;;;;;11.30;6.13;;;;;;;-1.00;86.03;100070.22;5015266;28;20211;-82
2021/12/03 01:40:50;;;;;;;13.63;7.23;;;;;;;-0.99;85.84;100071.94;5016102;28;20206;-82
2021/12/03 01:43:21;;;;;;;13.07;7.37;;;;;;;-0.97;86.08;100067.53;5017984;28;20199;-83
2021/12/03 01:45:49;;;;;;;12.60;6.07;;;;;;;-0.97;85.97;100071.00;5017597;28;20630;-82
2021/12/03 01:48:17;;;;;;;11.43;5.07;;;;;;;-0.95;85.93;100076.19;5018993;28;20238;-83
2021/12/03 01:50:46;;;;;;;12.23;7.20;;;;;;;-0.94;86.01;100091.84;5027731;28;20573;-83
2021/12/03 01:53:16;;;;;;;12.00;6.87;;;;;;;-0.92;85.82;100084.81;5019572;28;20214;-84
2021/12/03 01:55:44;;;;;;;12.67;6.53;;;;;;;-0.89;85.95;100074.25;5021622;28;20238;-83
2021/12/03 01:58:12;;;;;;;8.60;5.53;;;;;;;-0.88;85.64;100082.97;5009427;28;20207;-84
2021/12/03 02:00:44;;;;;;;12.13;6.97;;;;;;;-0.88;85.58;100081.22;4999679;28;20214;-84
2021/12/03 02:03:17;;;;;;;12.60;7.13;;;;;;;-0.86;85.66;100081.16;5025003;28;20221;-81
2021/12/03 02:05:44;;;;;;;12.30;6.80;;;;;;;-0.87;85.73;100084.69;5018704;28;20225;-83
2021/12/03 02:08:11;;;;;;;13.30;6.63;;;;;;;-0.87;85.66;100082.06;5017843;28;20206;-86
2021/12/03 02:10:38;;;;;;;8.60;4.80;;;;;;;-0.85;85.45;100093.34;5016000;28;20204;-82
2021/12/03 02:13:06;;;;;;;14.03;6.30;;;;;;;-0.83;85.57;100105.47;5028558;28;20665;-82
2021/12/03 02:15:33;;;;;;;9.90;5.10;;;;;;;-0.82;85.48;100106.34;5019031;28;20693;-82
2021/12/03 02:18:00;;;;;;;10.17;5.57;;;;;;;-0.81;85.28;100106.31;5025423;28;20775;-85
2021/12/03 02:20:28;;;;;;;12.60;6.53;;;;;;;-0.79;85.18;100117.59;5016542;28;20217;-84
2021/12/03 02:22:56;;;;;;;11.37;5.90;;;;;;;-0.78;85.21;100113.22;5024433;28;20215;-84
2021/12/03 02:25:25;;;;;;;10.23;5.57;;;;;;;-0.77;85.03;100115.78;5014952;28;20225;-85
2021/12/03 02:27:55;;;;;;;11.30;6.73;;;;;;;-0.77;85.12;100105.34;5014624;28;20226;-85
2021/12/03 02:30:23;;;;;;;11.27;6.33;;;;;;;-0.76;85.20;100107.06;5016055;28;20207;-85
2021/12/03 02:32:51;;;;;;;10.57;6.00;;;;;;;-0.75;85.20;100119.22;5015591;28;20207;-85
2021/12/03 02:35:19;;;;;;;12.23;7.03;;;;;;;-0.75;85.13;100113.16;5018888;28;20234;-85
2021/12/03 02:37:45;;;;;;;15.47;6.43;;;;;;;-0.77;85.08;100104.47;5023370;28;20573;-84
2021/12/03 02:40:15;;;;;;;10.47;5.97;;;;;;;-0.77;84.78;100110.56;5020546;28;20214;-86
2021/12/03 02:42:42;;;;;;;12.97;7.30;;;;;;;-0.78;84.71;100114.06;5026263;28;20211;-84
2021/12/03 02:45:11;;;;;;;12.33;6.47;;;;;;;-0.82;85.05;100125.50;5003089;28;20246;-87
2021/12/03 02:47:38;;;;;;;13.10;6.60;;;;;;;-0.82;84.69;100112.44;5012903;28;20209;-85
2021/12/03 02:50:07;;;;;;;13.47;7.40;;;;;;;-0.83;84.96;100110.72;4999170;28;20226;-86
2021/12/03 02:52:34;;;;;;;13.03;7.60;;;;;;;-0.83;84.84;100110.72;5014864;28;20246;-85
2021/12/03 02:55:01;;;;;;;12.07;6.47;;;;;;;-0.85;84.57;100117.72;5008054;28;20234;-87
2021/12/03 02:57:29;;;;;;;12.10;6.83;;;;;;;-0.85;84.71;100101.19;5014403;28;20215;-85
2021/12/03 02:59:56;;;;;;;10.93;6.13;;;;;;;-0.87;84.73;100095.13;5024239;28;20660;-84
2021/12/03 03:02:23;;;;;;;14.03;7.87;;;;;;;-0.88;84.74;100109.97;5018554;28;20297;-84
2021/12/03 03:04:49;;;;;;;11.73;7.27;;;;;;;-0.86;84.43;100102.94;5013318;28;20203;-83
2021/12/03 03:07:16;;;;;;;15.20;6.97;;;;;;;-0.88;85.03;100101.25;5015927;28;20211;-83
2021/12/03 03:09:44;;;;;;;14.23;7.17;;;;;;;-0.86;85.22;100104.69;5017523;28;20229;-84
2021/12/03 03:12:12;;;;;;;13.17;6.77;;;;;;;-0.87;85.57;100103.84;5014787;28;20265;-84
2021/12/03 03:14:45;;;;;;;14.77;7.97;;;;;;;-0.85;85.24;100111.66;5016012;28;20226;-84
2021/12/03 03:17:12;;;;;;;14.20;7.97;;;;;;;-0.84;85.35;100105.53;5026882;28;20206;-84
2021/12/03 03:19:38;;;;;;;9.73;5.57;;;;;;;-0.82;85.27;100109.81;5018675;28;20294;-82
2021/12/03 03:22:05;;;;;;;13.00;6.60;;;;;;;-0.83;85.69;100109.84;5012567;28;20221;-83
2021/12/03 03:24:32;;;;;;;14.13;7.70;;;;;;;-0.82;85.45;100117.66;5000764;28;20210;-84
2021/12/03 03:26:59;;;;;;;13.63;7.27;;;;;;;-0.80;85.72;100121.09;5007577;28;20241;-83
2021/12/03 03:29:26;;;;;;;15.83;8.13;;;;;;;-0.79;85.98;100116.72;5013588;28;20207;-83
2021/12/03 03:31:54;;;;;;;17.17;7.67;;;;;;;-0.80;85.58;100121.09;5026558;28;20694;-83
2021/12/03 03:34:20;;;;;;;13.47;7.97;;;;;;;-0.83;85.92;100105.47;5008984;28;20219;-85
2021/12/03 03:36:47;;;;;;;18.23;8.63;;;;;;;-0.80;86.00;100100.19;5017443;28;20218;-84
2021/12/03 03:39:15;;;;;;;15.07;7.87;;;;;;;-0.80;85.98;100115.88;5007250;28;20207;-83
2021/12/03 03:41:43;;;;;;;15.60;8.47;;;;;;;-0.79;85.69;100121.97;5012612;28;20209;-83
2021/12/03 03:44:10;;;;;;;19.17;9.07;;;;;;;-0.78;86.14;100115.81;5020349;28;20202;-85
2021/12/03 03:46:37;;;;;;;17.57;8.73;;;;;;;-0.77;86.15;100128.88;5025365;28;20236;-83
2021/12/03 03:49:05;;;;;;;16.97;8.77;;;;;;;-0.77;86.63;100114.94;5028854;28;20202;-83
2021/12/03 03:51:32;;;;;;;14.33;8.37;;;;;;;-0.77;86.51;100121.03;5023019;28;20244;-84
2021/12/03 03:53:59;;;;;;;11.53;6.43;;;;;;;-0.73;86.68;100121.81;5025386;28;20634;-85
2021/12/03 03:56:26;;;;;;;18.27;9.47;;;;;;;-0.71;86.53;100120.84;5014489;28;20582;-85
2021/12/03 03:58:53;;;;;;;17.30;8.93;;;;;;;-0.70;86.80;100126.94;5032587;28;20214;-84
2021/12/03 04:01:19;;;;;;;17.67;8.33;;;;;;;-0.68;86.72;100121.66;5019541;28;20203;-83
2021/12/03 04:03:47;;;;;;;16.90;9.37;;;;;;;-0.67;86.71;100115.53;5023502;28;20210;-84
2021/12/03 04:06:15;;;;;;;14.90;8.37;;;;;;;-0.66;87.10;100107.66;5027294;28;20226;-83
2021/12/03 04:08:43;;;;;;;16.80;9.40;;;;;;;-0.63;86.93;100111.97;5002603;28;20213;-85
2021/12/03 04:11:09;;;;;;;16.40;9.20;;;;;;;-0.63;86.51;100111.97;5007664;28;20211;-85
2021/12/03 04:13:36;;;;;;;17.40;9.30;;;;;;;-0.62;87.01;100116.28;5020850;28;20201;-84
2021/12/03 04:16:03;;;;;;;17.73;9.10;;;;;;;-0.62;86.91;100108.44;5027239;28;20230;-85
2021/12/03 04:18:29;;;;;;;17.20;8.77;;;;;;;-0.62;87.35;100105.81;5014684;28;20653;-84
2021/12/03 04:20:56;;;;;;;19.00;10.47;;;;;;;-0.62;87.08;100108.44;5029909;28;20210;-83
2021/12/03 04:23:24;;;;;;;17.40;9.00;;;;;;;-0.59;87.24;100108.38;5024884;28;20213;-83
2021/12/03 04:25:51;;;;;;;15.77;9.30;;;;;;;-0.58;87.18;100108.31;5028243;28;20589;-84
2021/12/03 04:28:22;;;;;;;14.73;9.67;;;;;;;-0.55;87.38;100104.78;5014532;28;20213;-83
2021/12/03 04:30:50;;;;;;;15.20;8.07;;;;;;;-0.53;87.01;100101.19;5019053;28;20207;-84
2021/12/03 04:33:17;;;;;;;15.93;8.50;;;;;;;-0.53;87.01;100103.81;5014946;28;20218;-83
2021/12/03 04:35:43;;;;;;;15.57;8.73;;;;;;;-0.54;87.48;100106.50;5006552;28;20230;-83
2021/12/03 04:38:10;;;;;;;15.27;9.17;;;;;;;-0.54;87.01;100101.25;5014747;28;20202;-84
2021/12/03 04:40:41;;;;;;;17.27;9.60;;;;;;;-0.53;87.43;100102.94;5016442;28;20205;-84
2021/12/03 04:43:08;;;;;;;15.73;8.03;;;;;;;-0.49;87.08;100115.91;5013250;28;20202;-83
2021/12/03 04:45:35;;;;;;;16.07;9.30;;;;;;;-0.50;87.43;100114.19;5021113;28;20589;-83
2021/12/03 04:48:04;;;;;;;13.20;7.33;;;;;;;-0.51;87.34;100114.22;5009109;28;20218;-83
2021/12/03 04:50:35;;;;;;;15.67;8.73;;;;;;;-0.51;87.34;100109.88;5019737;28;20644;-82
2021/12/03 04:53:01;;;;;;;16.67;8.97;;;;;;;-0.50;87.34;100118.56;5021176;28;20207;-84
2021/12/03 04:55:29;;;;;;;14.53;8.33;;;;;;;-0.51;87.08;100115.09;5011007;28;20235;-83
2021/12/03 04:57:57;;;;;;;17.80;9.87;;;;;;;-0.52;87.35;100115.13;5016870;28;20571;-82
2021/12/03 05:00:26;;;;;;;16.10;9.27;;;;;;;-0.49;87.48;100122.91;5017991;28;20199;-82
2021/12/03 05:02:54;;;;;;;14.73;8.07;;;;;;;-0.48;87.31;100122.00;5013730;28;20202;-84
2021/12/03 05:05:22;;;;;;;13.27;7.03;;;;;;;-0.46;87.13;100125.44;5022977;28;20227;-84
2021/12/03 05:10:37;;;;;;;19.40;9.50;;;;;;;-0.43;86.81;100120.13;5018373;28;20199;-84
2021/12/03 05:13:07;;;;;;;17.77;8.90;;;;;;;-0.42;87.01;100111.38;5028383;28;20207;-84
2021/12/03 05:15:35;;;;;;;15.40;9.07;;;;;;;-0.43;86.78;100121.00;5021745;28;20231;-84
2021/12/03 05:18:02;;;;;;;17.70;9.50;;;;;;;-0.41;86.70;100110.50;5026729;28;20207;-83
2021/12/03 05:20:29;;;;;;;17.80;10.47;;;;;;;-0.43;87.37;100121.00;5026036;28;20198;-83
2021/12/03 05:22:56;;;;;;;19.90;10.10;;;;;;;-0.39;86.91;100111.31;5021560;28;20211;-83
2021/12/03 05:25:23;;;;;;;17.40;10.20;;;;;;;-0.39;86.83;100109.56;5023806;28;20285;-84
2021/12/03 05:27:50;;;;;;;19.10;9.97;;;;;;;-0.36;86.96;100109.44;5020737;28;20210;-83
2021/12/03 05:30:18;;;;;;;22.73;10.93;;;;;;;-0.39;87.21;100101.69;5016648;28;20662;-84
2021/12/03 05:32:44;;;;;;;20.90;10.50;;;;;;;-0.34;86.84;100098.94;5011225;28;20203;-84
2021/12/03 05:35:12;;;;;;;22.27;10.93;;;;;;;-0.33;87.06;100108.50;4973500;28;1098545;-83
2021/12/03 05:37:39;;;;;;;21.00;11.17;;;;;;;-0.32;86.64;100112.84;5015188;28;20203;-84
2021/12/03 05:40:08;;;;;;;17.73;9.90;;;;;;;-0.30;86.67;100118.03;5016969;28;20215;-83
2021/12/03 05:42:35;;;;;;;19.23;11.00;;;;;;;-0.29;86.85;100118.00;5020453;28;20203;-84
2021/12/03 05:45:01;;;;;;;17.97;10.80;;;;;;;-0.30;86.89;100125.88;5023296;28;20981;-83
2021/12/03 05:47:29;;;;;;;19.77;11.70;;;;;;;-0.28;86.64;100124.94;5015680;28;20558;-83
2021/12/03 05:49:56;;;;;;;22.50;12.47;;;;;;;-0.28;86.80;100124.09;5016344;28;20215;-84
2021/12/03 05:52:22;;;;;;;18.17;9.03;;;;;;;-0.26;86.72;100131.00;5015281;28;20653;-81
2021/12/03 05:54:49;;;;;;;22.07;12.17;;;;;;;-0.24;86.73;100136.19;5021359;28;20680;-81
2021/12/03 05:57:15;;;;;;;22.57;12.07;;;;;;;-0.25;86.91;100135.34;5022135;28;20222;-83
2021/12/03 05:59:42;;;;;;;21.20;11.73;;;;;;;-0.23;86.88;100135.28;5020172;28;20207;-83
2021/12/03 06:02:09;;;;;;;20.77;9.47;;;;;;;-0.22;86.86;100139.63;5016640;28;20203;-83
2021/12/03 06:04:37;;;;;;;14.93;7.80;;;;;;;-0.22;86.81;100137.00;5018873;28;20207;-82
2021/12/03 06:07:04;;;;;;;22.57;10.37;;;;;;;-0.20;86.76;100149.16;5018127;28;20213;-82
2021/12/03 06:09:31;;;;;;;22.97;11.17;;;;;;;-0.20;86.90;100153.53;5019771;28;20241;-82
2021/12/03 06:11:59;;;;;;;19.37;10.87;;;;;;;-0.18;86.94;100147.31;5017660;28;20575;-83
2021/12/03 06:14:27;;;;;;;18.97;10.23;;;;;;;-0.12;86.84;100146.31;5018226;28;20226;-84
2021/12/03 06:16:53;;;;;;;20.27;10.77;;;;;;;-0.12;86.84;100154.16;5018350;28;20231;-83
2021/12/03 06:19:20;;;;;;;23.33;11.63;;;;;;;-0.12;86.88;100152.41;5018205;28;20203;-83
2021/12/03 06:21:48;;;;;;;16.30;8.90;;;;;;;-0.10;86.78;100148.00;5015691;28;20567;-84
2021/12/03 06:24:15;;;;;;;22.43;10.83;;;;;;;-0.11;86.98;100148.88;5017689;28;20546;-83
2021/12/03 06:26:41;;;;;;;22.93;11.03;;;;;;;-0.07;87.02;100158.38;5013356;28;20226;-83
2021/12/03 06:29:08;;;;;;;20.27;11.30;;;;;;;-0.07;86.96;100140.06;5018469;28;20210;-82
2021/12/03 06:31:35;;;;;;;18.33;10.07;;;;;;;-0.06;87.07;100143.53;5021809;28;20290;-81
2021/12/03 06:34:01;;;;;;;17.30;9.63;;;;;;;-0.06;87.04;100141.78;5018034;28;20215;-81
2021/12/03 06:36:28;;;;;;;17.63;10.17;;;;;;;-0.03;87.06;100136.47;5018971;28;20226;-81
2021/12/03 06:38:57;;;;;;;16.63;9.37;;;;;;;0.00;87.05;100138.97;5014481;28;20303;-82
2021/12/03 06:41:24;;;;;;;20.13;10.27;;;;;;;0.02;87.08;100141.53;5015162;28;20203;-81
2021/12/03 06:43:51;;;;;;;17.63;10.03;;;;;;;0.04;86.88;100149.34;5016684;28;20213;-81
2021/12/03 06:46:18;;;;;;;17.87;10.77;;;;;;;0.03;86.88;100148.50;5014721;28;20277;-82
2021/12/03 06:48:44;;;;;;;21.43;11.43;;;;;;;0.06;87.10;100140.56;5013912;28;20573;-83
2021/12/03 06:51:11;;;;;;;20.17;10.30;;;;;;;0.05;87.28;100140.59;5017294;28;20568;-82
2021/12/03 06:53:44;;;;;;;21.87;10.07;;;;;;;0.03;86.79;100147.63;5016611;28;20213;-82
2021/12/03 06:56:20;;;;;;;21.53;11.03;;;;;;;0.05;86.93;100151.06;5018677;28;20298;-81
2021/12/03 06:58:47;;;;;;;16.43;8.77;;;;;;;0.04;87.18;100159.81;5013991;28;20199;-82
2021/12/03 07:01:14;;;;;;;17.10;10.40;;;;;;;0.12;86.34;100152.63;5014563;28;20276;-82
2021/12/03 07:03:41;;;;;;;13.93;7.17;;;;;;;0.13;86.80;100146.47;5016502;28;20219;-80
2021/12/03 07:06:07;;;;;;;16.17;10.40;;;;;;;0.14;86.81;100158.69;5016460;28;20219;-82
2021/12/03 07:08:34;;;;;;;18.00;10.90;;;;;;;0.13;86.76;100155.19;5016337;28;20562;-82
2021/12/03 07:11:00;;;;;;;16.63;9.27;;;;;;;0.15;86.71;100152.53;5017194;28;20294;-83
2021/12/03 07:13:30;;;;;;;17.67;10.30;;;;;;;0.17;86.89;100158.59;5019025;28;20206;-83
2021/12/03 07:15:57;;;;;;;18.57;10.43;;;;;;;0.21;86.79;100157.59;5022658;28;20233;-83
2021/12/03 07:18:44;;;;;;;;;;;;;;;;;;;;;
2021/12/03 07:21:11;;;;;;;17.63;9.63;;;;;;;0.25;86.45;100161.84;5028615;28;20756;-82
2021/12/03 07:23:38;;;;;;;14.17;9.47;;;;;;;0.26;86.60;100158.31;5028110;28;20704;-81
2021/12/03 07:26:05;;;;;;;17.70;9.73;;;;;;;0.28;86.68;100162.59;5010647;28;20227;-82
2021/12/03 07:28:33;;;;;;;15.27;8.77;;;;;;;0.30;86.62;100163.44;5028061;28;20202;-82
2021/12/03 07:31:00;;;;;;;13.90;9.47;;;;;;;0.33;86.85;100165.97;5022943;28;20214;-81
2021/12/03 07:33:29;;;;;;;15.83;9.43;;;;;;;0.38;86.61;100173.66;5014668;28;20218;-81
2021/12/03 07:35:57;;;;;;;16.03;9.60;;;;;;;0.40;86.60;100171.84;5023228;28;20254;-83
2021/12/03 07:38:23;;;;;;;16.80;9.23;;;;;;;0.44;86.58;100175.25;5033259;28;20203;-82
2021/12/03 07:40:51;;;;;;;15.70;7.70;;;;;;;0.47;86.79;100180.41;5019439;28;20572;-83
2021/12/03 07:43:18;;;;;;;14.17;8.03;;;;;;;0.51;86.55;100174.19;5026829;28;20668;-81
2021/12/03 07:45:48;;;;;;;13.37;7.77;;;;;;;0.54;86.43;100179.28;5018970;28;20226;-81
2021/12/03 07:48:15;;;;;;;16.33;9.43;;;;;;;0.57;86.49;100168.72;5017749;28;20675;-81
2021/12/03 07:50:44;;;;;;;13.70;8.93;;;;;;;0.61;86.40;100172.97;5021572;28;20217;-81
2021/12/03 07:53:14;;;;;;;13.53;7.80;;;;;;;0.65;86.18;100172.84;5035656;28;20234;-81
2021/12/03 07:55:40;;;;;;;16.30;8.23;;;;;;;0.65;86.14;100178.09;5024645;28;20261;-81
2021/12/03 07:58:07;;;;;;;14.03;9.10;;;;;;;0.64;86.25;100163.28;5033142;28;20241;-82
2021/12/03 08:00:34;;;;;;;17.67;8.60;;;;;;;0.68;86.25;100174.53;5033413;28;20216;-82
2021/12/03 08:03:02;;;;;;;14.80;7.87;;;;;;;0.72;86.12;100168.25;5019141;28;20592;-81
2021/12/03 08:05:28;;;;;;;13.47;7.90;;;;;;;0.76;85.79;100169.03;5020380;28;20227;-82
2021/12/03 08:07:55;;;;;;;12.80;7.50;;;;;;;0.78;85.63;100168.06;5016344;28;20233;-81
2021/12/03 08:10:22;;;;;;;13.27;7.70;;;;;;;0.82;85.65;100169.72;5023723;28;20233;-82
2021/12/03 08:12:48;;;;;;;10.90;6.70;;;;;;;0.86;85.05;100170.47;5027560;28;20203;-81
2021/12/03 08:15:16;;;;;;;11.87;7.37;;;;;;;0.84;84.93;100167.91;5023651;28;20731;-81
2021/12/03 08:17:43;;;;;;;8.83;5.43;;;;;;;0.85;84.98;100168.75;5017583;28;20218;-82
2021/12/03 08:20:12;;;;;;;12.10;7.27;;;;;;;0.88;84.50;100163.44;5014367;28;20270;-81
2021/12/03 08:22:38;;;;;;;13.70;7.33;;;;;;;0.86;84.79;100155.59;5015941;28;20222;-81
2021/12/03 08:25:06;;;;;;;14.50;6.70;;;;;;;0.88;84.29;100148.56;5031359;28;20683;-81
2021/12/03 08:27:32;;;;;;;12.57;6.80;;;;;;;0.90;84.20;100145.84;5022277;28;20207;-81
2021/12/03 08:29:59;;;;;;;14.53;7.53;;;;;;;0.88;84.26;100150.31;5021217;28;20207;-81
2021/12/03 08:32:26;;;;;;;11.83;6.67;;;;;;;0.86;83.81;100155.59;5026582;28;20213;-82
2021/12/03 08:34:52;;;;;;;12.73;6.23;;;;;;;0.88;84.05;100152.94;5013870;28;20249;-81
2021/12/03 08:37:20;;;;;;;9.00;6.57;;;;;;;0.91;83.86;100163.31;5020741;28;20230;-82
2021/12/03 08:39:47;;;;;;;14.27;7.47;;;;;;;0.93;83.59;100161.50;5020977;28;20217;-81
2021/12/03 08:42:13;;;;;;;14.37;7.30;;;;;;;0.93;84.25;100158.88;5018412;28;20217;-82
2021/12/03 08:44:41;;;;;;;10.77;6.63;;;;;;;0.97;83.86;100163.97;5033457;28;20214;-81
2021/12/03 08:47:07;;;;;;;8.87;5.30;;;;;;;1.01;83.81;100159.50;5024048;28;20199;-81
2021/12/03 08:49:37;;;;;;;14.13;6.87;;;;;;;1.01;83.42;100149.00;5024309;28;20208;-81
2021/12/03 08:52:24;;;;;;;12.00;7.53;;;;;;;1.06;83.42;100160.22;5015358;28;20210;-80
2021/12/03 08:54:52;;;;;;;14.80;7.90;;;;;;;1.07;83.71;100158.44;5013130;28;20199;-81
2021/12/03 08:57:21;;;;;;;14.10;7.00;;;;;;;1.10;83.19;100161.81;5014965;28;20227;-81
2021/12/03 08:59:48;;;;;;;15.33;9.10;;;;;;;1.08;82.81;100161.00;5018086;28;20207;-82
2021/12/03 09:02:14;;;;;;;21.53;10.47;;;;;;;1.10;83.20;100174.91;5018213;28;20585;-81
2021/12/03 09:04:41;;;;;;;15.60;8.57;;;;;;;1.13;83.03;100185.31;5025858;28;20203;-80
2021/12/03 09:07:07;;;;;;;13.93;8.73;;;;;;;1.14;82.69;100183.56;5024304;28;20207;-81
2021/12/03 09:09:34;;;;;;;11.90;6.33;;;;;;;1.17;82.86;100176.44;5017124;28;20214;-81
2021/12/03 09:12:02;;;;;;;16.37;8.37;;;;;;;1.17;82.87;100173.81;5017357;28;20217;-80
2021/12/03 09:14:35;;;;;;;13.20;8.13;;;;;;;1.17;82.75;100176.44;5018938;28;20207;-80
2021/12/03 09:17:11;;;;;;;12.30;7.63;;;;;;;1.20;82.54;100176.34;5015133;28;20579;-80
2021/12/03 09:19:44;;;;;;;15.23;7.90;;;;;;;1.22;82.34;100179.78;5024167;28;20233;-81
2021/12/03 09:22:16;;;;;;;16.40;7.63;;;;;;;1.21;82.21;100182.47;5019698;28;20272;-80
2021/12/03 09:24:43;;;;;;;14.47;7.17;;;;;;;1.25;82.22;100179.69;5017243;28;20239;-80
2021/12/03 09:27:11;;;;;;;14.77;8.27;;;;;;;1.29;82.11;100176.03;5017045;28;20211;-80
2021/12/03 09:29:38;;;;;;;14.57;6.33;;;;;;;1.34;82.05;100174.13;5014462;28;20215;-80
2021/12/03 09:32:05;;;;;;;13.73;6.37;;;;;;;1.34;82.09;100173.28;5014513;28;20225;-79
2021/12/03 09:34:32;;;;;;;14.70;7.60;;;;;;;1.37;82.22;100174.03;5014095;28;20218;-81
2021/12/03 09:36:59;;;;;;;12.87;7.20;;;;;;;1.41;81.64;100153.81;5018116;28;20226;-81
2021/12/03 09:39:26;;;;;;;14.33;7.57;;;;;;;1.45;81.82;100157.16;5005495;28;20211;-80
2021/12/03 09:41:54;;;;;;;11.03;7.30;;;;;;;1.46;82.14;100145.75;5017773;28;20199;-81
2021/12/03 09:44:23;;;;;;;16.00;8.30;;;;;;;1.49;81.87;100153.53;5014379;28;20880;-81
2021/12/03 09:46:50;;;;;;;11.93;6.63;;;;;;;1.56;81.49;100149.78;5014334;28;20227;-80
2021/12/03 09:49:34;;;;;;;15.87;8.20;;;;;;;1.57;81.38;100147.13;5027986;28;20308;-81
2021/12/03 09:52:10;;;;;;;13.57;7.50;;;;;;;1.60;81.01;100143.53;5002727;28;20234;-80
2021/12/03 09:54:42;;;;;;;13.30;7.23;;;;;;;1.63;81.45;100128.50;5028983;28;20260;-80
2021/12/03 09:57:13;;;;;;;13.97;6.30;;;;;;;1.72;80.60;100127.34;5034105;28;20225;-80
2021/12/03 10:03:03;;;;;;;14.53;6.87;;;;;;;1.81;80.91;100113.88;4988636;28;20678;-80
2021/12/03 10:20:07;;;;;;;11.07;6.17;;;;;;;2.01;79.08;100084.25;5087824;28;20553;-74
2021/12/03 10:23:23;;;;;;;11.07;6.40;;;;;;;2.07;79.64;100084.91;5063864;28;20312;-74
2021/12/03 10:31:55;;;;;;;12.03;5.90;;;;;;;2.20;78.44;100082.66;5073376;28;20223;-74
2021/12/03 10:40:32;;;;;;;9.10;5.77;;;;;;;2.27;78.61;100072.78;4948162;29;20217;-80
2021/12/03 10:43:19;;;;;;;7.97;5.10;;;;;;;2.30;78.16;100078.78;4943523;28;20222;-80
2021/12/03 10:46:08;;;;;;;10.20;6.17;;;;;;;2.29;78.13;100074.44;5020127;28;20313;-81
2021/12/03 10:48:45;;;;;;;8.30;4.87;;;;;;;2.32;77.88;100078.72;5048942;28;20205;-80
2021/12/03 10:51:21;;;;;;;8.97;6.00;;;;;;;2.37;77.75;100074.97;5044730;28;20206;-80
2021/12/03 10:53:56;;;;;;;8.53;5.03;;;;;;;2.39;77.51;100082.81;5039550;28;20577;-81
2021/12/03 11:02:24;;;;;;;20.10;5.97;;;;;;;2.48;76.84;100057.94;5034133;28;20292;-80
2021/12/03 12:48:30;;;;;;;8.17;5.10;;;;;;;2.94;74.75;99946.47;5017952;28;20297;-82
2021/12/03 13:13:20;;;;;;;6.27;4.03;;;;;;;3.01;73.40;99914.56;5017104;28;20209;-81
2021/12/03 14:37:00;;;;;;;5.83;2.80;;;;;;;3.02;71.20;99826.84;5024930;28;20544;-81
2021/12/03 14:45:29;;;;;;;5.13;2.93;;;;;;;2.99;71.36;99823.50;5023442;28;20222;-81
2021/12/03 14:51:03;;;;;;;7.57;3.30;;;;;;;3.02;71.42;99833.88;5026690;28;20803;-81
2021/12/03 14:53:40;;;;;;;3.00;2.33;;;;;;;2.99;71.13;99839.28;5022833;28;20203;-81
2021/12/03 14:56:10;;;;;;;5.77;2.17;;;;;;;2.99;70.70;99834.00;5023508;28;20336;-81
2021/12/03 14:58:47;;;;;;;6.40;1.97;;;;;;;3.00;71.42;99819.94;5027029;28;20259;-82
2021/12/03 15:01:21;;;;;;;4.60;2.00;;;;;;;2.99;71.29;99815.59;5026095;28;20252;-82
2021/12/03 15:04:02;;;;;;;9.57;4.23;;;;;;;2.96;71.33;99806.06;5027684;28;20257;-81
2021/12/03 15:06:34;;;;;;;5.77;2.30;;;;;;;3.00;71.28;99812.91;5031647;28;20222;-82
2021/12/03 15:09:07;;;;;;;4.47;2.33;;;;;;;3.00;70.56;99791.00;5029947;28;20198;-81
2021/12/03 15:11:59;;;;;;;7.23;3.83;;;;;;;2.98;70.99;99790.22;5031624;28;20210;-81
2021/12/03 15:23:07;;;;;;;9.33;2.77;;;;;;;2.97;71.06;99792.00;5042558;28;20224;-85
2021/12/03 15:25:50;;;;;;;2.90;1.87;;;;;;;2.95;71.03;99788.59;5042927;28;20222;-84
2021/12/03 15:28:42;;;;;;;5.60;2.40;;;;;;;2.95;70.42;99787.72;5045024;28;20202;-84
2021/12/03 15:31:28;;;;;;;5.17;1.97;;;;;;;2.95;71.14;99793.00;5039501;28;20206;-85
2021/12/03 15:33:59;;;;;;;7.73;2.47;;;;;;;2.93;71.39;99786.94;5042196;28;20214;-84
2021/12/03 15:36:36;;;;;;;6.87;2.20;;;;;;;2.95;71.49;99779.84;5039263;28;20279;-84
2021/12/03 15:39:15;;;;;;;5.17;1.93;;;;;;;2.93;70.67;99771.16;5044792;28;20290;-85
2021/12/03 15:53:34;;;;;;;5.17;2.37;;;;;;;2.90;71.16;99750.25;5047212;28;20221;-83
2021/12/03 16:04:06;;;;;;;3.40;1.90;;;;;;;2.88;70.81;99723.19;5041754;28;20212;-85
2021/12/03 16:06:39;;;;;;;5.60;2.50;;;;;;;2.84;70.61;99714.59;5040476;28;20273;-84
2021/12/03 16:09:15;;;;;;;7.67;2.73;;;;;;;2.88;70.55;99710.03;5039055;28;20233;-83
2021/12/03 16:11:50;;;;;;;4.17;2.30;;;;;;;2.86;70.69;99714.53;5039910;28;20206;-85